createdAt,value
2022-08-28T00:00:52.938Z,2.90
2022-08-28T00:05:54.625Z,2.90
2022-08-28T00:10:56.912Z,2.92
2022-08-28T00:16:01.111Z,3.10
2022-08-28T00:21:03.484Z,3.10
2022-08-28T00:26:05.127Z,3.13
2022-08-28T00:31:08.101Z,2.67
2022-08-28T00:36:10.137Z,3.28
2022-08-28T00:41:12.301Z,3.08
2022-08-28T00:46:22.686Z,3.03
2022-08-28T00:51:43.312Z,3.05
2022-08-28T00:56:46.658Z,2.80
2022-08-28T01:01:49.822Z,2.72
2022-08-28T01:06:54.587Z,2.90
2022-08-28T01:12:03.215Z,3.15
2022-08-28T01:17:08.582Z,2.88
2022-08-28T01:22:10.172Z,3.10
2022-08-28T01:27:12.117Z,3.20
2022-08-28T01:32:14.049Z,2.95
2022-08-28T01:37:15.733Z,2.90
2022-08-28T01:42:17.685Z,2.70
2022-08-28T01:47:19.286Z,3.00
2022-08-28T01:52:24.150Z,3.20
2022-08-28T01:57:28.391Z,3.20
2022-08-28T02:02:31.774Z,3.03
2022-08-28T02:07:33.384Z,3.10
2022-08-28T02:12:36.045Z,3.28
2022-08-28T02:17:37.699Z,3.05
2022-08-28T02:22:39.374Z,2.90
2022-08-28T02:27:41.615Z,3.10
2022-08-28T02:32:44.455Z,2.97
2022-08-28T02:37:47.684Z,2.95
2022-08-28T02:42:50.514Z,3.10
2022-08-28T02:47:53.852Z,3.15
2022-08-28T02:52:55.604Z,3.53
2022-08-28T02:57:57.445Z,2.97
2022-08-28T03:02:59.109Z,3.20
2022-08-28T03:08:00.960Z,3.30
2022-08-28T03:13:02.639Z,3.00
2022-08-28T03:18:04.739Z,2.92
2022-08-28T03:23:28.815Z,3.20
2022-08-28T03:28:36.496Z,3.33
2022-08-28T03:33:38.270Z,3.30
2022-08-28T03:38:44.210Z,3.03
2022-08-28T03:43:46.156Z,3.38
2022-08-28T03:48:47.857Z,3.25
2022-08-28T03:53:52.902Z,3.40
2022-08-28T03:58:58.141Z,3.60
2022-08-28T04:03:59.892Z,3.20
2022-08-28T04:09:02.287Z,3.33
2022-08-28T04:14:03.920Z,3.15
2022-08-28T04:19:05.545Z,3.15
2022-08-28T04:24:09.662Z,3.35
2022-08-28T04:29:12.555Z,3.53
2022-08-28T04:34:14.201Z,3.15
2022-08-28T04:39:15.879Z,3.60
2022-08-28T04:44:17.536Z,3.40
2022-08-28T04:49:19.343Z,3.45
2022-08-28T04:54:21.127Z,3.28
2022-08-28T04:59:23.821Z,2.88
2022-08-28T05:04:26.978Z,3.53
2022-08-28T05:09:28.691Z,3.63
2022-08-28T05:14:30.806Z,3.40
2022-08-28T05:19:32.737Z,4.00
2022-08-28T05:24:34.800Z,3.30
2022-08-28T05:29:38.686Z,3.33
2022-08-28T05:34:40.289Z,3.42
2022-08-28T05:39:41.907Z,3.28
2022-08-28T05:44:43.510Z,3.58
2022-08-28T05:49:45.112Z,3.03
2022-08-28T05:54:46.730Z,3.20
2022-08-28T05:59:48.371Z,3.50
2022-08-28T06:04:50.323Z,3.50
2022-08-28T06:09:51.969Z,3.15
2022-08-28T06:14:53.926Z,3.65
2022-08-28T06:19:56.975Z,2.88
2022-08-28T06:24:58.726Z,3.30
2022-08-28T06:30:00.408Z,2.97
2022-08-28T06:35:02.007Z,2.58
2022-08-28T06:40:04.410Z,2.60
2022-08-28T06:45:06.658Z,2.75
2022-08-28T06:50:08.885Z,2.60
2022-08-28T06:55:10.849Z,2.75
2022-08-28T07:00:13.865Z,2.50
2022-08-28T07:05:15.603Z,2.42
2022-08-28T07:10:17.793Z,2.65
2022-08-28T07:15:19.870Z,2.63
2022-08-28T07:20:22.850Z,2.85
2022-08-28T07:25:25.111Z,2.67
2022-08-28T07:30:27.028Z,2.90
2022-08-28T07:35:29.011Z,3.17
2022-08-28T07:40:32.180Z,2.53
2022-08-28T07:45:35.454Z,2.70
2022-08-28T07:50:37.600Z,2.50
2022-08-28T07:55:39.902Z,2.95
2022-08-28T08:00:41.525Z,2.92
2022-08-28T08:05:55.265Z,2.53
2022-08-28T08:11:05.299Z,2.45
2022-08-28T08:16:11.419Z,2.28
2022-08-28T08:21:15.493Z,2.45
2022-08-28T08:26:20.487Z,2.40
2022-08-28T08:31:29.665Z,2.47
2022-08-28T08:41:37.463Z,2.80
2022-08-28T08:47:03.984Z,2.13
2022-08-28T08:52:05.535Z,2.40
2022-08-28T08:57:11.187Z,2.80
2022-08-28T09:02:22.191Z,2.75
2022-08-28T09:07:57.347Z,2.05
2022-08-28T09:13:22.494Z,2.20
2022-08-28T09:18:28.298Z,2.20
2022-08-28T09:23:30.303Z,2.13
2022-08-28T09:28:40.868Z,2.35
2022-08-28T09:33:47.662Z,2.30
2022-08-28T09:39:13.268Z,1.95
2022-08-28T09:44:15.232Z,2.22
2022-08-28T09:49:23.810Z,2.10
2022-08-28T09:54:40.526Z,1.90
2022-08-28T09:59:42.308Z,2.20
2022-08-28T10:05:07.639Z,2.25
2022-08-28T10:10:30.376Z,1.92
2022-08-28T10:15:43.338Z,2.00
2022-08-28T10:20:51.356Z,2.10
2022-08-28T10:26:12.581Z,2.08
2022-08-28T10:31:26.286Z,2.00
2022-08-28T10:36:35.438Z,1.93
2022-08-28T10:41:46.012Z,2.17
2022-08-28T10:46:55.694Z,2.13
2022-08-28T10:52:04.548Z,2.13
2022-08-28T10:57:31.073Z,1.90
2022-08-28T11:02:33.088Z,2.30
2022-08-28T11:07:37.332Z,2.10
2022-08-28T11:12:43.448Z,1.92
2022-08-28T11:17:45.200Z,2.20
2022-08-28T11:23:12.080Z,2.20
2022-08-28T11:28:25.692Z,3.10
2022-08-28T11:33:52.567Z,2.40
2022-08-28T11:38:54.183Z,2.10
2022-08-28T11:44:13.945Z,2.60
2022-08-28T11:49:27.372Z,2.88
2022-08-28T11:55:16.273Z,2.80
2022-08-28T12:00:29.322Z,2.78
2022-08-28T12:05:30.861Z,3.10
2022-08-28T12:10:32.411Z,2.95
2022-08-28T12:15:34.163Z,3.33
2022-08-28T12:20:52.143Z,3.40
2022-08-28T12:26:05.765Z,3.22
2022-08-28T12:31:07.366Z,3.40
2022-08-28T12:36:15.986Z,3.30
2022-08-28T12:41:18.602Z,3.65
2022-08-28T12:46:37.926Z,3.25
2022-08-28T12:51:39.562Z,3.80
2022-08-28T12:56:41.397Z,4.13
2022-08-28T13:01:44.591Z,3.90
2022-08-28T13:06:46.318Z,3.67
2022-08-28T13:11:50.415Z,3.78
2022-08-28T13:16:52.072Z,3.97
2022-08-28T13:22:01.947Z,3.75
2022-08-28T13:27:06.446Z,3.65
2022-08-28T13:32:15.288Z,3.67
2022-08-28T13:37:41.667Z,3.78
2022-08-28T13:42:43.433Z,4.45
2022-08-28T13:47:45.069Z,3.45
2022-08-28T13:52:46.975Z,3.10
2022-08-28T13:57:48.601Z,3.03
2022-08-28T14:03:08.955Z,3.03
2022-08-28T14:08:10.760Z,3.22
2022-08-28T14:13:12.785Z,3.45
2022-08-28T14:18:14.657Z,2.80
2022-08-28T14:23:16.507Z,2.80
2022-08-28T14:28:18.197Z,2.90
2022-08-28T14:33:20.768Z,2.60
2022-08-28T14:38:22.659Z,2.92
2022-08-28T14:43:24.267Z,2.80
2022-08-28T14:48:26.623Z,2.38
2022-08-28T14:53:28.217Z,2.50
2022-08-28T14:58:29.955Z,2.38
2022-08-28T15:03:31.878Z,2.75
2022-08-28T15:08:35.139Z,2.42
2022-08-28T15:13:37.606Z,2.20
2022-08-28T15:18:42.841Z,2.42
2022-08-28T15:23:51.777Z,2.67
2022-08-28T15:28:55.959Z,2.20
2022-08-28T15:33:59.038Z,2.35
2022-08-28T15:39:19.786Z,2.20
2022-08-28T15:44:21.480Z,2.35
2022-08-28T15:49:25.561Z,2.47
2022-08-28T15:54:27.580Z,2.00
2022-08-28T15:59:44.113Z,2.13
2022-08-28T16:04:52.996Z,2.50
2022-08-28T16:09:54.974Z,2.28
2022-08-28T16:14:56.600Z,2.20
2022-08-28T16:19:58.230Z,2.00
2022-08-28T16:24:59.836Z,2.10
2022-08-28T16:30:01.519Z,2.40
2022-08-28T16:35:04.209Z,2.00
2022-08-28T16:40:10.713Z,2.55
2022-08-28T16:45:13.502Z,2.30
2022-08-28T16:50:18.075Z,2.17
2022-08-28T16:55:21.912Z,2.08
2022-08-28T17:00:25.061Z,2.00
2022-08-28T17:05:26.945Z,2.15
2022-08-28T17:10:29.145Z,2.17
2022-08-28T17:15:31.571Z,1.90
2022-08-28T17:20:53.019Z,2.03
2022-08-28T17:25:54.690Z,1.92
2022-08-28T17:30:56.722Z,1.52
2022-08-28T17:35:59.845Z,1.83
2022-08-28T17:41:06.210Z,2.13
2022-08-28T17:46:08.298Z,1.88
2022-08-28T17:51:10.089Z,1.90
2022-08-28T17:56:12.262Z,1.90
2022-08-28T18:01:27.345Z,1.88
2022-08-28T18:06:29.112Z,2.15
2022-08-28T18:11:30.785Z,1.90
2022-08-28T18:16:34.176Z,1.65
2022-08-28T18:21:37.371Z,1.98
2022-08-28T18:26:40.108Z,3.28
2022-08-28T18:31:42.309Z,2.03
2022-08-28T18:36:43.938Z,2.13
2022-08-28T18:41:45.599Z,2.20
2022-08-28T18:46:47.561Z,2.17
2022-08-28T18:51:49.223Z,2.15
2022-08-28T18:56:50.915Z,2.13
2022-08-28T19:01:53.203Z,2.20
2022-08-28T19:06:54.884Z,2.00
2022-08-28T19:11:56.571Z,2.50
2022-08-28T19:16:58.378Z,1.90
2022-08-28T19:22:00.470Z,1.92
2022-08-28T19:27:02.815Z,2.10
2022-08-28T19:32:05.780Z,2.10
2022-08-28T19:37:07.437Z,2.13
2022-08-28T19:42:09.050Z,2.33
2022-08-28T19:47:10.810Z,2.20
2022-08-28T19:52:13.019Z,2.42
2022-08-28T19:57:15.282Z,2.15
2022-08-28T20:02:22.886Z,2.40
2022-08-28T20:07:25.041Z,2.75
2022-08-28T20:12:26.748Z,2.30
2022-08-28T20:17:28.374Z,2.25
2022-08-28T20:22:31.899Z,1.98
2022-08-28T20:27:33.969Z,2.10
2022-08-28T20:32:36.183Z,2.30
2022-08-28T20:37:44.967Z,2.10
2022-08-28T20:42:48.553Z,2.13
2022-08-28T20:47:50.352Z,2.28
2022-08-28T20:52:53.000Z,2.05
2022-08-28T20:57:54.885Z,2.15
2022-08-28T21:02:56.520Z,2.20
2022-08-28T21:07:58.134Z,2.20
2022-08-28T21:12:59.825Z,2.40
2022-08-28T21:18:02.618Z,2.08
2022-08-28T21:23:07.047Z,2.00
2022-08-28T21:28:08.941Z,2.20
2022-08-28T21:33:10.595Z,2.30
2022-08-28T21:38:12.265Z,2.10
2022-08-28T21:43:14.159Z,2.38
2022-08-28T21:48:15.778Z,2.88
2022-08-28T21:53:17.562Z,2.10
2022-08-28T21:58:22.327Z,2.20
2022-08-28T22:03:25.216Z,2.33
2022-08-28T22:08:28.689Z,2.20
2022-08-28T22:13:30.325Z,2.30
2022-08-28T22:18:34.371Z,2.22
2022-08-28T22:23:37.330Z,2.00
2022-08-28T22:28:39.863Z,2.35
2022-08-28T22:33:42.989Z,2.03
2022-08-28T22:38:53.060Z,2.28
2022-08-28T22:43:55.234Z,2.30
2022-08-28T22:48:56.863Z,2.35
2022-08-28T22:53:58.741Z,2.10
2022-08-28T22:59:00.486Z,2.20
2022-08-28T23:04:02.940Z,2.10
2022-08-28T23:09:04.633Z,2.17
2022-08-28T23:14:06.284Z,2.25
2022-08-28T23:19:09.064Z,2.35
2022-08-28T23:24:16.093Z,2.40
2022-08-28T23:29:17.805Z,2.42
2022-08-28T23:34:19.442Z,2.17
2022-08-28T23:39:21.267Z,2.28
2022-08-28T23:44:23.175Z,2.20
2022-08-28T23:49:27.001Z,2.10
2022-08-28T23:54:28.818Z,2.50
2022-08-28T23:59:31.162Z,2.00
